createdAt,value
2019-02-12T00:00:51.818Z,100070.56
2019-02-12T00:02:59.348Z,100069.57
2019-02-12T00:05:07.245Z,100072.59
2019-02-12T00:07:14.732Z,100071.75
2019-02-12T00:09:22.265Z,100068.81
2019-02-12T00:11:29.777Z,100064.03
2019-02-12T00:13:37.324Z,100064.91
2019-02-12T00:15:44.792Z,100074.25
2019-02-12T00:17:52.355Z,100063.27
2019-02-12T00:20:00.072Z,100066.78
2019-02-12T00:22:07.903Z,100069.30
2019-02-12T00:24:15.457Z,100070.72
2019-02-12T00:26:22.979Z,100069.41
2019-02-12T00:28:30.670Z,100068.45
2019-02-12T00:30:38.245Z,100071.74
2019-02-12T00:32:45.912Z,100075.47
2019-02-12T00:34:53.529Z,100077.31
2019-02-12T00:37:00.838Z,100083.34
2019-02-12T00:39:08.866Z,100077.34
2019-02-12T00:41:16.042Z,100077.48
2019-02-12T00:43:23.488Z,100078.08
2019-02-12T00:45:30.958Z,100071.58
2019-02-12T00:47:38.391Z,100076.41
2019-02-12T00:49:45.506Z,100085.55
2019-02-12T00:51:52.983Z,100078.11
2019-02-12T00:54:00.439Z,100087.62
2019-02-12T00:56:07.852Z,100088.03
2019-02-12T00:58:15.398Z,100083.38
2019-02-12T01:00:22.824Z,100087.73
2019-02-12T01:02:29.959Z,100088.52
2019-02-12T01:04:37.531Z,100090.11
2019-02-12T01:06:44.831Z,100091.13
2019-02-12T01:08:52.266Z,100092.59
2019-02-12T01:10:59.766Z,100092.59
2019-02-12T01:13:07.288Z,100098.91
2019-02-12T01:15:15.118Z,100095.59
2019-02-12T01:17:22.508Z,100097.71
2019-02-12T01:19:30.221Z,100106.56
2019-02-12T01:21:37.529Z,100108.69
2019-02-12T01:23:45.036Z,100109.67
2019-02-12T01:25:52.364Z,100107.52
2019-02-12T01:27:59.789Z,100117.95
2019-02-12T01:30:10.384Z,100119.52
2019-02-12T01:32:17.786Z,100123.48
2019-02-12T01:34:25.344Z,100122.57
2019-02-12T01:36:32.815Z,100130.86
2019-02-12T01:38:40.488Z,100129.18
2019-02-12T01:40:47.925Z,100132.02
2019-02-12T01:42:55.328Z,100135.66
2019-02-12T01:45:02.620Z,100144.69
2019-02-12T01:47:10.156Z,100144.64
2019-02-12T01:49:17.569Z,100134.41
2019-02-12T01:51:24.879Z,100141.27
2019-02-12T01:53:32.295Z,100143.05
2019-02-12T01:55:39.696Z,100146.58
2019-02-12T01:57:47.033Z,100151.63
2019-02-12T01:59:54.342Z,100154.38
2019-02-12T02:02:01.840Z,100153.10
2019-02-12T02:04:09.471Z,100160.51
2019-02-12T02:06:16.767Z,100161.59
2019-02-12T02:08:24.171Z,100173.15
2019-02-12T02:10:31.370Z,100174.12
2019-02-12T02:12:39.651Z,100182.48
2019-02-12T02:14:47.089Z,100180.35
2019-02-12T02:16:54.419Z,100192.16
2019-02-12T02:19:01.653Z,100191.62
2019-02-12T02:21:09.137Z,100194.76
2019-02-12T02:23:16.428Z,100191.78
2019-02-12T02:25:23.740Z,100195.23
2019-02-12T02:27:31.349Z,100198.50
2019-02-12T02:29:38.777Z,100206.98
2019-02-12T02:31:46.149Z,100210.50
2019-02-12T02:33:53.559Z,100214.05
2019-02-12T02:36:00.962Z,100217.66
2019-02-12T02:38:08.392Z,100227.41
2019-02-12T02:40:15.714Z,100234.73
2019-02-12T02:42:23.146Z,100233.95
2019-02-12T02:44:30.491Z,100232.58
2019-02-12T02:46:37.774Z,100233.63
2019-02-12T02:48:45.186Z,100246.34
2019-02-12T02:50:52.737Z,100244.40
2019-02-12T02:53:00.099Z,100251.53
2019-02-12T02:55:07.717Z,100254.34
2019-02-12T02:57:15.281Z,100260.47
2019-02-12T02:59:22.626Z,100265.52
2019-02-12T03:01:30.056Z,100268.75
2019-02-12T03:03:37.234Z,100269.60
2019-02-12T03:05:44.687Z,100271.89
2019-02-12T03:07:52.077Z,100290.08
2019-02-12T03:09:59.505Z,100292.21
2019-02-12T03:12:06.968Z,100286.19
2019-02-12T03:14:14.368Z,100291.83
2019-02-12T03:16:21.791Z,100303.01
2019-02-12T03:18:28.912Z,100302.17
2019-02-12T03:20:36.341Z,100308.59
2019-02-12T03:22:43.786Z,100310.04
2019-02-12T03:24:51.136Z,100314.41
2019-02-12T03:26:58.519Z,100310.97
2019-02-12T03:29:05.814Z,100331.70
2019-02-12T03:31:13.209Z,100326.56
2019-02-12T03:33:20.595Z,100329.23
2019-02-12T03:35:28.045Z,100330.45
2019-02-12T03:37:35.377Z,100344.84
2019-02-12T03:39:42.837Z,100338.41
2019-02-12T03:41:50.229Z,100347.36
2019-02-12T03:43:57.532Z,100351.87
2019-02-12T03:46:04.622Z,100350.59
2019-02-12T03:48:13.481Z,100360.59
2019-02-12T03:50:20.819Z,100356.54
2019-02-12T03:52:28.040Z,100349.27
2019-02-12T03:54:35.405Z,100347.51
2019-02-12T03:56:42.775Z,100355.91
2019-02-12T03:58:50.282Z,100354.09
2019-02-12T04:00:57.877Z,100355.37
2019-02-12T04:03:09.250Z,100352.48
2019-02-12T04:05:16.702Z,100353.73
2019-02-12T04:07:24.105Z,100353.20
2019-02-12T04:09:31.439Z,100358.39
2019-02-12T04:11:38.868Z,100359.69
2019-02-12T04:13:46.183Z,100359.23
2019-02-12T04:15:53.639Z,100360.66
2019-02-12T04:18:01.093Z,100361.52
2019-02-12T04:20:08.401Z,100368.83
2019-02-12T04:22:22.231Z,100371.91
2019-02-12T04:24:24.690Z,100372.34
2019-02-12T04:26:32.094Z,100379.25
2019-02-12T04:28:39.464Z,100373.27
2019-02-12T04:30:46.899Z,100376.27
2019-02-12T04:32:53.968Z,100373.73
2019-02-12T04:35:01.146Z,100369.85
2019-02-12T04:37:08.591Z,100376.27
2019-02-12T04:39:16.052Z,100381.45
2019-02-12T04:41:23.568Z,100379.00
2019-02-12T04:43:30.555Z,100382.73
2019-02-12T04:45:38.025Z,100381.44
2019-02-12T04:47:45.479Z,100380.55
2019-02-12T04:49:52.949Z,100390.92
2019-02-12T04:52:00.320Z,100390.23
2019-02-12T04:54:07.738Z,100396.57
2019-02-12T04:56:15.235Z,100396.96
2019-02-12T04:58:22.565Z,100396.59
2019-02-12T05:00:30.026Z,100404.45
2019-02-12T05:02:37.529Z,100403.30
2019-02-12T05:04:44.948Z,100402.97
2019-02-12T05:06:52.416Z,100409.02
2019-02-12T05:09:19.693Z,100410.38
2019-02-12T05:11:27.158Z,100409.48
2019-02-12T05:13:34.508Z,100416.44
2019-02-12T05:15:41.947Z,100411.30
2019-02-12T05:17:49.485Z,100419.98
2019-02-12T05:19:56.995Z,100417.45
2019-02-12T05:22:04.456Z,100418.31
2019-02-12T05:24:11.805Z,100428.10
2019-02-12T05:26:19.236Z,100427.77
2019-02-12T05:28:26.519Z,100432.06
2019-02-12T05:30:33.814Z,100437.27
2019-02-12T05:32:41.350Z,100438.16
2019-02-12T05:34:48.704Z,100438.48
2019-02-12T05:36:56.171Z,100443.70
2019-02-12T05:39:05.217Z,100443.75
2019-02-12T05:41:12.632Z,100445.05
2019-02-12T05:43:20.193Z,100452.84
2019-02-12T05:45:27.540Z,100455.36
2019-02-12T05:47:35.015Z,100458.81
2019-02-12T05:49:42.312Z,100460.18
2019-02-12T05:51:49.884Z,100472.73
2019-02-12T05:53:57.232Z,100477.91
2019-02-12T05:56:04.637Z,100475.77
2019-02-12T05:58:12.141Z,100481.46
2019-02-12T06:00:21.037Z,100483.55
2019-02-12T06:02:28.355Z,100482.72
2019-02-12T06:04:35.647Z,100488.35
2019-02-12T06:06:43.029Z,100490.44
2019-02-12T06:08:50.304Z,100489.61
2019-02-12T06:10:57.905Z,100498.74
2019-02-12T06:13:05.481Z,100487.95
2019-02-12T06:15:12.840Z,100496.99
2019-02-12T06:17:20.432Z,100495.29
2019-02-12T06:19:27.976Z,100499.59
2019-02-12T06:21:35.372Z,100509.08
2019-02-12T06:23:42.723Z,100504.78
2019-02-12T06:25:50.191Z,100507.38
2019-02-12T06:27:57.681Z,100511.27
2019-02-12T06:30:05.253Z,100516.86
2019-02-12T06:32:12.596Z,100514.27
2019-02-12T06:34:20.262Z,100517.72
2019-02-12T06:36:27.556Z,100520.31
2019-02-12T06:38:35.031Z,100519.06
2019-02-12T06:40:42.188Z,100527.20
2019-02-12T06:42:49.698Z,100535.04
2019-02-12T06:44:57.065Z,100527.64
2019-02-12T06:47:04.544Z,100533.30
2019-02-12T06:49:11.941Z,100531.93
2019-02-12T06:51:19.398Z,100534.14
2019-02-12T06:53:26.846Z,100535.88
2019-02-12T06:55:34.315Z,100531.09
2019-02-12T06:57:41.591Z,100545.31
2019-02-12T06:59:48.964Z,100541.81
2019-02-12T07:02:51.048Z,100546.95
2019-02-12T07:04:58.561Z,100544.40
2019-02-12T07:08:11.586Z,100545.64
2019-02-12T07:10:26.752Z,100547.39
2019-02-12T07:13:17.102Z,100552.59
2019-02-12T07:15:36.735Z,100550.50
2019-02-12T07:18:54.624Z,100559.48
2019-02-12T07:22:00.618Z,100556.55
2019-02-12T07:25:28.871Z,100557.41
2019-02-12T07:28:24.738Z,100564.30
2019-02-12T07:31:06.638Z,100570.27
2019-02-12T07:34:25.626Z,100578.11
2019-02-12T07:37:15.594Z,100579.08
2019-02-12T07:39:53.291Z,100580.89
2019-02-12T07:42:50.188Z,100582.13
2019-02-12T07:45:59.249Z,100590.78
2019-02-12T07:48:42.311Z,100596.23
2019-02-12T07:51:38.227Z,100601.04
2019-02-12T07:55:02.999Z,100615.17
2019-02-12T07:58:09.737Z,100617.77
2019-02-12T08:00:59.257Z,100625.55
2019-02-12T08:04:19.421Z,100628.09
2019-02-12T08:07:24.617Z,100635.79
2019-02-12T08:10:37.142Z,100631.88
2019-02-12T08:13:43.814Z,100634.03
2019-02-12T08:16:33.338Z,100645.55
2019-02-12T08:19:31.146Z,100640.28
2019-02-12T08:22:18.697Z,100647.16
2019-02-12T08:25:13.382Z,100650.16
2019-02-12T08:28:00.400Z,100652.80
2019-02-12T08:31:34.407Z,100654.10
2019-02-12T08:34:27.003Z,100660.61
2019-02-12T08:37:14.565Z,100667.98
2019-02-12T08:40:04.923Z,100673.61
2019-02-12T08:43:24.465Z,100679.60
2019-02-12T08:46:05.857Z,100682.15
2019-02-12T08:49:07.074Z,100686.83
2019-02-12T08:52:08.574Z,100688.57
2019-02-12T08:55:20.661Z,100690.78
2019-02-12T08:58:36.497Z,100692.93
2019-02-12T09:01:27.825Z,100700.74
2019-02-12T09:04:24.388Z,100702.02
2019-02-12T09:07:06.206Z,100701.11
2019-02-12T09:10:08.204Z,100710.57
2019-02-12T09:13:27.095Z,100708.30
2019-02-12T09:16:34.321Z,100703.08
2019-02-12T09:19:26.664Z,100719.97
2019-02-12T09:22:34.975Z,100721.22
2019-02-12T09:25:52.370Z,100712.56
2019-02-12T09:28:56.317Z,100723.88
2019-02-12T09:32:20.798Z,100727.25
2019-02-12T09:35:21.909Z,100737.55
2019-02-12T09:38:38.238Z,100749.64
2019-02-12T09:41:11.682Z,100746.64
2019-02-12T09:44:29.468Z,100757.45
2019-02-12T09:47:26.683Z,100761.02
2019-02-12T09:50:48.319Z,100768.39
2019-02-12T09:53:46.541Z,100764.56
2019-02-12T09:57:14.582Z,100769.29
2019-02-12T10:00:08.263Z,100771.82
2019-02-12T10:03:42.400Z,100782.23
2019-02-12T10:06:33.465Z,100777.48
2019-02-12T10:09:52.077Z,100799.95
2019-02-12T10:12:36.237Z,100798.69
2019-02-12T10:15:23.639Z,100798.64
2019-02-12T10:18:09.370Z,100805.66
2019-02-12T10:21:01.169Z,100810.86
2019-02-12T10:24:20.079Z,100806.06
2019-02-12T10:26:27.531Z,100815.61
2019-02-12T10:29:23.771Z,100816.91
2019-02-12T10:31:48.421Z,100807.80
2019-02-12T10:33:55.840Z,100808.21
2019-02-12T10:36:03.330Z,100811.66
2019-02-12T10:40:19.211Z,100807.63
2019-02-12T10:42:26.543Z,100812.38
2019-02-12T10:44:34.117Z,100808.47
2019-02-12T10:46:41.601Z,100813.75
2019-02-12T10:48:48.917Z,100803.78
2019-02-12T10:50:56.246Z,100815.95
2019-02-12T10:53:03.734Z,100822.38
2019-02-12T10:55:11.115Z,100820.69
2019-02-12T10:57:18.526Z,100817.70
2019-02-12T10:59:25.910Z,100820.31
2019-02-12T11:01:33.507Z,100818.55
2019-02-12T11:03:40.968Z,100826.36
2019-02-12T11:05:48.280Z,100833.31
2019-02-12T11:07:55.806Z,100835.03
2019-02-12T11:10:03.948Z,100831.52
2019-02-12T11:12:11.446Z,100837.73
2019-02-12T11:14:18.807Z,100836.88
2019-02-12T11:16:26.134Z,100842.50
2019-02-12T11:18:33.567Z,100843.79
2019-02-12T11:20:41.043Z,100846.84
2019-02-12T11:22:48.515Z,100848.16
2019-02-12T11:24:57.075Z,100849.47
2019-02-12T11:27:04.528Z,100846.92
2019-02-12T11:29:12.087Z,100850.81
2019-02-12T11:31:19.778Z,100848.27
2019-02-12T11:33:27.282Z,100853.86
2019-02-12T11:35:34.784Z,100853.86
2019-02-12T11:37:42.211Z,100846.08
2019-02-12T11:39:49.577Z,100862.98
2019-02-12T11:41:57.054Z,100854.27
2019-02-12T11:44:04.540Z,100860.77
2019-02-12T11:46:11.971Z,100871.19
2019-02-12T11:48:19.569Z,100871.23
2019-02-12T11:50:27.001Z,100875.59
2019-02-12T11:52:34.410Z,100878.19
2019-02-12T11:54:45.390Z,100883.39
2019-02-12T11:56:52.795Z,100879.45
2019-02-12T11:59:00.337Z,100876.84
2019-02-12T12:01:11.623Z,100887.26
2019-02-12T12:03:19.472Z,100888.16
2019-02-12T12:05:26.948Z,100889.00
2019-02-12T12:07:34.665Z,100897.62
2019-02-12T12:09:42.384Z,100897.66
2019-02-12T12:11:49.867Z,100894.22
2019-02-12T12:13:57.657Z,100898.56
2019-02-12T12:16:05.418Z,100903.78
2019-02-12T12:18:13.105Z,100906.37
2019-02-12T12:20:20.693Z,100905.47
2019-02-12T12:22:28.371Z,100912.38
2019-02-12T12:24:35.833Z,100911.97
2019-02-12T12:26:43.360Z,100928.48
2019-02-12T12:28:50.904Z,100921.08
2019-02-12T12:30:58.519Z,100923.68
2019-02-12T12:33:06.487Z,100925.44
2019-02-12T12:35:13.928Z,100930.20
2019-02-12T12:37:21.339Z,100938.86
2019-02-12T12:39:28.763Z,100931.94
2019-02-12T12:41:36.084Z,100940.10
2019-02-12T12:43:43.491Z,100946.16
2019-02-12T12:45:50.924Z,100951.82
2019-02-12T12:47:58.379Z,100958.36
2019-02-12T12:50:06.167Z,100959.22
2019-02-12T12:52:13.654Z,100955.72
2019-02-12T12:54:21.127Z,100966.13
2019-02-12T12:56:28.568Z,100967.02
2019-02-12T12:58:36.018Z,100967.88
2019-02-12T13:00:43.491Z,100965.28
2019-02-12T13:02:51.056Z,100971.78
2019-02-12T13:04:58.478Z,100970.03
2019-02-12T13:07:05.942Z,100978.24
2019-02-12T13:09:13.454Z,100978.24
2019-02-12T13:11:21.108Z,100985.60
2019-02-12T13:13:28.574Z,100974.78
2019-02-12T13:15:35.897Z,100986.50
2019-02-12T13:17:43.464Z,100983.09
2019-02-12T13:19:50.955Z,100992.61
2019-02-12T13:21:58.426Z,100992.20
2019-02-12T13:24:05.823Z,100997.81
2019-02-12T13:26:13.250Z,101002.61
2019-02-12T13:28:20.718Z,101001.72
2019-02-12T13:30:28.257Z,101000.41
2019-02-12T13:32:35.765Z,101005.16
2019-02-12T13:34:43.690Z,101002.52
2019-02-12T13:36:51.185Z,101013.78
2019-02-12T13:39:00.738Z,101012.03
2019-02-12T13:41:08.257Z,101017.64
2019-02-12T13:43:15.678Z,101013.74
2019-02-12T13:45:22.780Z,101025.89
2019-02-12T13:47:30.255Z,101027.20
2019-02-12T13:49:37.662Z,101031.11
2019-02-12T13:51:45.186Z,101031.11
2019-02-12T13:53:52.712Z,101032.81
2019-02-12T13:56:00.166Z,101031.06
2019-02-12T13:58:07.622Z,101041.48
2019-02-12T14:00:15.953Z,101048.44
2019-02-12T14:02:23.575Z,101048.43
2019-02-12T14:04:31.007Z,101053.19
2019-02-12T14:06:38.333Z,101056.24
2019-02-12T14:08:46.339Z,101059.25
2019-02-12T14:10:54.253Z,101056.24
2019-02-12T14:13:02.475Z,101068.81
2019-02-12T14:15:12.135Z,101074.02
2019-02-12T14:17:20.154Z,101072.72
2019-02-12T14:19:27.804Z,101076.63
2019-02-12T14:21:35.449Z,101076.22
2019-02-12T14:23:42.934Z,101080.57
2019-02-12T14:25:50.550Z,101090.98
2019-02-12T14:27:58.489Z,101086.22
2019-02-12T14:30:06.299Z,101093.59
2019-02-12T14:32:14.062Z,101087.48
2019-02-12T14:34:21.659Z,101100.95
2019-02-12T14:36:29.585Z,101100.95
2019-02-12T14:38:37.303Z,101108.76
2019-02-12T14:40:44.939Z,101105.30
2019-02-12T14:42:52.899Z,101102.25
2019-02-12T14:45:00.978Z,101115.27
2019-02-12T14:47:08.856Z,101121.33
2019-02-12T14:49:16.762Z,101118.73
2019-02-12T14:51:24.932Z,101126.54
2019-02-12T14:53:32.776Z,101119.17
2019-02-12T14:55:40.385Z,101127.39
2019-02-12T14:57:48.338Z,101126.09
2019-02-12T14:59:56.185Z,101127.84
2019-02-12T15:02:04.309Z,101138.70
2019-02-12T15:04:12.062Z,101143.91
2019-02-12T15:06:19.922Z,101145.21
2019-02-12T15:08:27.972Z,101149.12
2019-02-12T15:10:35.694Z,101153.47
2019-02-12T15:12:43.383Z,101157.81
2019-02-12T15:14:50.851Z,101158.67
2019-02-12T15:16:58.396Z,101161.72
2019-02-12T15:19:05.747Z,101169.09
2019-02-12T15:21:13.265Z,101174.30
2019-02-12T15:23:21.099Z,101176.94
2019-02-12T15:25:28.665Z,101179.95
2019-02-12T15:27:36.557Z,101184.30
2019-02-12T15:29:43.991Z,101189.95
2019-02-12T15:31:51.760Z,101190.80
2019-02-12T15:33:59.896Z,101194.30
2019-02-12T15:36:08.139Z,101190.84
2019-02-12T15:38:16.069Z,101206.05
2019-02-12T15:40:24.097Z,101210.80
2019-02-12T15:42:32.570Z,101212.52
2019-02-12T15:44:40.119Z,101222.08
2019-02-12T15:46:47.641Z,101216.01
2019-02-12T15:48:55.156Z,101226.42
2019-02-12T15:51:02.649Z,101237.72
2019-02-12T15:53:10.149Z,101234.67
2019-02-12T15:55:17.871Z,101238.58
2019-02-12T15:57:27.175Z,101248.55
2019-02-12T15:59:34.685Z,101254.64
2019-02-12T16:01:42.086Z,101250.73
2019-02-12T16:03:49.986Z,101263.31
2019-02-12T16:05:58.776Z,101264.61
2019-02-12T16:08:07.710Z,101272.00
2019-02-12T16:10:19.380Z,101279.37
2019-02-12T16:12:28.382Z,101273.72
2019-02-12T16:14:36.232Z,101294.13
2019-02-12T16:16:44.221Z,101290.22
2019-02-12T16:18:52.198Z,101292.41
2019-02-12T16:20:59.613Z,101301.51
2019-02-12T16:23:07.118Z,101305.44
2019-02-12T16:25:15.436Z,101313.22
2019-02-12T16:27:23.223Z,101318.42
2019-02-12T16:29:31.546Z,101324.07
2019-02-12T16:31:39.750Z,101322.77
2019-02-12T16:33:48.357Z,101335.37
2019-02-12T16:35:56.693Z,101341.90
2019-02-12T16:38:04.606Z,101344.48
2019-02-12T16:40:13.640Z,101346.23
2019-02-12T16:42:22.023Z,101349.28
2019-02-12T16:44:30.098Z,101345.37
2019-02-12T16:46:37.795Z,101357.95
2019-02-12T16:48:46.263Z,101368.36
2019-02-12T16:50:54.402Z,101373.13
2019-02-12T16:53:02.508Z,101376.58
2019-02-12T16:55:11.223Z,101383.11
2019-02-12T16:57:18.938Z,101390.03
2019-02-12T16:59:26.876Z,101388.31
2019-02-12T17:01:34.854Z,101393.93
2019-02-12T17:03:43.522Z,101404.34
2019-02-12T17:05:51.868Z,101396.98
2019-02-12T17:08:00.078Z,101405.67
2019-02-12T17:10:09.006Z,101416.92
2019-02-12T17:12:16.881Z,101422.14
2019-02-12T17:14:24.950Z,101424.33
2019-02-12T17:16:32.936Z,101429.95
2019-02-12T17:18:41.470Z,101427.80
2019-02-12T17:20:49.564Z,101436.02
2019-02-12T17:22:57.927Z,101439.91
2019-02-12T17:25:07.031Z,101445.11
2019-02-12T17:27:15.415Z,101450.75
2019-02-12T17:29:23.232Z,101453.34
2019-02-12T17:31:30.974Z,101460.71
2019-02-12T17:33:38.436Z,101462.88
2019-02-12T17:35:46.541Z,101458.11
2019-02-12T17:37:54.184Z,101459.39
2019-02-12T17:40:01.634Z,101466.34
2019-02-12T17:42:09.410Z,101475.44
2019-02-12T17:44:17.328Z,101470.23
2019-02-12T17:46:25.248Z,101473.67
2019-02-12T17:48:33.671Z,101472.81
2019-02-12T17:50:41.289Z,101480.59
2019-02-12T17:52:49.451Z,101491.39
2019-02-12T17:54:57.273Z,101482.33
2019-02-12T17:57:04.970Z,101484.05
2019-02-12T17:59:13.125Z,101489.66
2019-02-12T18:01:20.658Z,101489.25
2019-02-12T18:03:28.246Z,101496.14
2019-02-12T18:05:36.161Z,101500.47
2019-02-12T18:07:43.762Z,101500.45
2019-02-12T18:09:51.340Z,101506.54
2019-02-12T18:11:59.068Z,101509.92
2019-02-12T18:14:07.253Z,101508.22
2019-02-12T18:16:15.310Z,101509.52
2019-02-12T18:18:23.423Z,101512.09
2019-02-12T18:20:31.681Z,101516.87
2019-02-12T18:22:39.907Z,101516.89
2019-02-12T18:24:47.570Z,101515.13
2019-02-12T18:26:54.985Z,101516.81
2019-02-12T18:29:02.889Z,101517.69
2019-02-12T18:31:10.660Z,101521.55
2019-02-12T18:33:18.309Z,101520.19
2019-02-12T18:35:26.647Z,101528.05
2019-02-12T18:37:34.263Z,101531.87
2019-02-12T18:39:41.905Z,101535.69
2019-02-12T18:41:49.396Z,101540.55
2019-02-12T18:43:57.070Z,101545.64
2019-02-12T18:46:04.440Z,101543.47
2019-02-12T18:48:12.237Z,101541.29
2019-02-12T18:50:19.747Z,101548.23
2019-02-12T18:52:27.293Z,101549.92
2019-02-12T18:54:34.701Z,101546.79
2019-02-12T18:56:42.321Z,101549.91
2019-02-12T18:58:49.819Z,101554.61
2019-02-12T19:00:57.367Z,101549.44
2019-02-12T19:03:04.888Z,101558.86
2019-02-12T19:05:12.461Z,101563.23
2019-02-12T19:07:19.971Z,101555.47
2019-02-12T19:09:27.369Z,101566.28
2019-02-12T19:11:35.059Z,101572.34
2019-02-12T19:13:42.740Z,101570.67
2019-02-12T19:15:50.350Z,101571.84
2019-02-12T19:18:06.364Z,101570.21
2019-02-12T19:20:14.745Z,101568.36
2019-02-12T19:22:22.490Z,101574.35
2019-02-12T19:24:30.372Z,101574.31
2019-02-12T19:26:37.951Z,101584.38
2019-02-12T19:28:45.450Z,101577.38
2019-02-12T19:30:52.910Z,101588.06
2019-02-12T19:33:00.707Z,101586.47
2019-02-12T19:35:09.317Z,101591.22
2019-02-12T19:37:16.799Z,101589.06
2019-02-12T19:39:24.323Z,101591.99
2019-02-12T19:41:31.850Z,101604.89
2019-02-12T19:43:39.513Z,101604.45
2019-02-12T19:45:47.077Z,101613.13
2019-02-12T19:47:54.628Z,101611.72
2019-02-12T19:50:01.998Z,101605.42
2019-02-12T19:52:09.841Z,101604.64
2019-02-12T19:54:17.226Z,101624.02
2019-02-12T19:56:24.610Z,101622.74
2019-02-12T19:58:32.226Z,101627.84
2019-02-12T20:00:40.898Z,101626.34
2019-02-12T20:02:48.826Z,101623.50
2019-02-12T20:04:56.532Z,101630.44
2019-02-12T20:07:03.944Z,101626.50
2019-02-12T20:09:19.054Z,101639.93
2019-02-12T20:11:26.482Z,101644.63
2019-02-12T20:13:34.226Z,101646.44
2019-02-12T20:15:41.810Z,101639.61
2019-02-12T20:17:49.358Z,101643.09
2019-02-12T20:19:57.217Z,101642.94
2019-02-12T20:22:04.685Z,101653.38
2019-02-12T20:24:13.687Z,101654.77
2019-02-12T20:26:22.463Z,101662.37
2019-02-12T20:28:29.897Z,101653.86
2019-02-12T20:30:37.461Z,101653.90
2019-02-12T20:32:44.921Z,101660.41
2019-02-12T20:34:52.615Z,101667.56
2019-02-12T20:37:00.097Z,101664.17
2019-02-12T20:39:08.085Z,101671.89
2019-02-12T20:41:15.689Z,101668.30
2019-02-12T20:43:23.419Z,101666.28
2019-02-12T20:45:30.999Z,101665.32
2019-02-12T20:47:38.667Z,101659.17
2019-02-12T20:49:46.459Z,101650.84
2019-02-12T20:51:53.947Z,101658.97
2019-02-12T20:54:01.644Z,101664.11
2019-02-12T20:56:09.167Z,101665.94
2019-02-12T20:58:17.137Z,101669.04
2019-02-12T21:00:24.832Z,101668.22
2019-02-12T21:02:32.377Z,101666.26
2019-02-12T21:04:39.950Z,101661.48
2019-02-12T21:06:47.622Z,101664.72
2019-02-12T21:08:55.120Z,101663.06
2019-02-12T21:11:02.600Z,101665.05
2019-02-12T21:13:10.030Z,101665.61
2019-02-12T21:15:19.788Z,101666.50
2019-02-12T21:17:27.196Z,101670.84
2019-02-12T21:19:34.758Z,101667.81
2019-02-12T21:21:42.208Z,101678.06
2019-02-12T21:23:49.726Z,101671.45
2019-02-12T21:25:57.350Z,101674.34
2019-02-12T21:28:04.887Z,101671.17
2019-02-12T21:30:16.357Z,101672.74
2019-02-12T21:32:24.004Z,101673.25
2019-02-12T21:34:31.646Z,101675.80
2019-02-12T21:36:39.220Z,101676.52
2019-02-12T21:38:46.757Z,101681.92
2019-02-12T21:40:54.581Z,101675.03
2019-02-12T21:43:02.274Z,101685.59
2019-02-12T21:45:10.567Z,101680.41
2019-02-12T21:47:18.006Z,101686.95
2019-02-12T21:49:25.520Z,101684.19
2019-02-12T21:51:33.113Z,101680.63
2019-02-12T21:53:40.709Z,101683.70
2019-02-12T21:55:48.371Z,101681.03
2019-02-12T21:57:55.987Z,101685.00
2019-02-12T22:00:03.550Z,101687.19
2019-02-12T22:02:11.387Z,101690.05
2019-02-12T22:04:18.885Z,101687.89
2019-02-12T22:06:26.437Z,101698.37
2019-02-12T22:08:33.903Z,101698.34
2019-02-12T22:10:46.505Z,101687.19
2019-02-12T22:12:50.809Z,101687.11
2019-02-12T22:15:02.968Z,101700.05
2019-02-12T22:17:10.957Z,101705.41
2019-02-12T22:19:18.471Z,101707.80
2019-02-12T22:21:25.963Z,101705.50
2019-02-12T22:23:33.606Z,101711.20
2019-02-12T22:25:41.041Z,101720.30
2019-02-12T22:27:48.578Z,101718.08
2019-02-12T22:29:56.634Z,101717.80
2019-02-12T22:32:04.212Z,101717.66
2019-02-12T22:34:11.771Z,101720.07
2019-02-12T22:36:19.271Z,101730.25
2019-02-12T22:38:26.887Z,101729.14
2019-02-12T22:40:34.453Z,101735.92
2019-02-12T22:42:41.805Z,101735.22
2019-02-12T22:44:49.523Z,101738.15
2019-02-12T22:46:57.194Z,101744.53
2019-02-12T22:49:04.687Z,101732.16
2019-02-12T22:51:12.158Z,101731.39
2019-02-12T22:53:19.968Z,101729.34
2019-02-12T22:55:27.519Z,101733.03
2019-02-12T22:57:34.882Z,101735.13
2019-02-12T22:59:42.839Z,101738.73
2019-02-12T23:01:50.439Z,101733.37
2019-02-12T23:03:58.314Z,101736.42
2019-02-12T23:06:05.857Z,101744.38
2019-02-12T23:08:13.123Z,101740.65
2019-02-12T23:10:21.676Z,101739.32
2019-02-12T23:12:29.309Z,101737.46
2019-02-12T23:14:36.566Z,101736.89
2019-02-12T23:16:44.230Z,101730.28
2019-02-12T23:18:51.824Z,101728.27
2019-02-12T23:20:59.322Z,101726.09
2019-02-12T23:23:06.987Z,101731.55
2019-02-12T23:25:14.449Z,101730.25
2019-02-12T23:27:22.217Z,101727.13
2019-02-12T23:29:29.659Z,101732.34
2019-02-12T23:31:37.103Z,101732.31
2019-02-12T23:33:44.578Z,101745.77
2019-02-12T23:35:52.027Z,101736.17
2019-02-12T23:37:59.505Z,101742.95
2019-02-12T23:40:07.161Z,101744.91
2019-02-12T23:42:14.643Z,101742.25
2019-02-12T23:44:22.063Z,101740.12
2019-02-12T23:46:29.454Z,101735.57
2019-02-12T23:48:36.999Z,101742.74
2019-02-12T23:50:44.522Z,101729.72
2019-02-12T23:52:51.895Z,101737.63
2019-02-12T23:54:59.341Z,101732.31
2019-02-12T23:57:06.727Z,101734.01
2019-02-12T23:59:14.199Z,101735.73
